createdAt,value
2019-03-08T00:00:05.347Z,74.05
2019-03-08T00:02:33.820Z,74.27
2019-03-08T00:05:02.259Z,73.88
2019-03-08T00:07:30.655Z,73.80
2019-03-08T00:09:59.064Z,74.14
2019-03-08T00:12:27.482Z,73.76
2019-03-08T00:14:55.906Z,73.68
2019-03-08T00:17:24.316Z,73.86
2019-03-08T00:19:52.730Z,74.34
2019-03-08T00:22:24.126Z,73.71
2019-03-08T00:24:52.518Z,73.81
2019-03-08T00:27:20.930Z,73.66
2019-03-08T00:29:49.361Z,73.66
2019-03-08T00:32:17.752Z,74.11
2019-03-08T00:34:46.167Z,74.38
2019-03-08T00:37:14.659Z,75.03
2019-03-08T00:39:43.081Z,75.31
2019-03-08T00:42:11.624Z,75.78
2019-03-08T00:44:40.033Z,77.87
2019-03-08T00:47:08.523Z,78.62
2019-03-08T00:49:37.001Z,78.80
2019-03-08T00:52:05.482Z,79.49
2019-03-08T00:54:33.879Z,79.72
2019-03-08T00:57:02.278Z,80.15
2019-03-08T00:59:30.662Z,79.99
2019-03-08T01:01:59.156Z,79.28
2019-03-08T01:04:27.707Z,79.23
2019-03-08T01:06:56.187Z,79.28
2019-03-08T01:09:24.580Z,78.97
2019-03-08T01:11:53.012Z,78.97
2019-03-08T01:14:21.448Z,78.89
2019-03-08T01:16:49.916Z,78.85
2019-03-08T01:19:18.409Z,78.70
2019-03-08T01:21:46.813Z,79.45
2019-03-08T01:24:15.255Z,79.23
2019-03-08T01:26:43.647Z,78.99
2019-03-08T01:29:12.130Z,78.77
2019-03-08T01:31:40.539Z,79.42
2019-03-08T01:34:08.933Z,79.78
2019-03-08T01:36:37.439Z,79.79
2019-03-08T01:39:07.675Z,80.33
2019-03-08T01:41:36.127Z,80.53
2019-03-08T01:44:04.622Z,80.99
2019-03-08T01:46:33.068Z,81.24
2019-03-08T01:49:01.504Z,80.65
2019-03-08T01:51:29.927Z,80.63
2019-03-08T01:53:58.363Z,81.19
2019-03-08T01:56:26.826Z,81.21
2019-03-08T01:58:55.253Z,81.32
2019-03-08T02:01:23.658Z,81.69
2019-03-08T02:03:52.147Z,81.68
2019-03-08T02:06:20.695Z,81.94
2019-03-08T02:08:49.084Z,82.03
2019-03-08T02:11:17.588Z,82.22
2019-03-08T02:13:46.008Z,82.83
2019-03-08T02:16:14.442Z,82.79
2019-03-08T02:18:42.849Z,82.93
2019-03-08T02:21:11.270Z,83.88
2019-03-08T02:23:39.687Z,83.71
2019-03-08T02:26:08.159Z,84.53
2019-03-08T02:28:36.566Z,85.38
2019-03-08T02:31:08.206Z,86.22
2019-03-08T02:33:36.627Z,86.86
2019-03-08T02:36:05.093Z,86.46
2019-03-08T02:38:33.507Z,86.37
2019-03-08T02:43:29.335Z,85.54
2019-03-08T02:45:57.833Z,85.79
2019-03-08T02:48:26.234Z,85.51
2019-03-08T02:50:54.676Z,85.73
2019-03-08T02:53:23.072Z,85.78
2019-03-08T02:55:51.488Z,85.87
2019-03-08T02:58:19.894Z,86.27
2019-03-08T03:00:48.300Z,86.50
2019-03-08T03:03:17.546Z,86.73
2019-03-08T03:05:46.023Z,86.61
2019-03-08T03:08:14.447Z,87.06
2019-03-08T03:10:42.916Z,87.64
2019-03-08T03:13:11.410Z,87.99
2019-03-08T03:15:39.883Z,88.55
2019-03-08T03:18:08.272Z,89.97
2019-03-08T03:20:37.466Z,91.20
2019-03-08T03:23:05.871Z,89.84
2019-03-08T03:25:34.288Z,90.41
2019-03-08T03:28:02.788Z,91.06
2019-03-08T03:30:31.254Z,91.46
2019-03-08T03:32:59.731Z,91.37
2019-03-08T03:35:28.401Z,91.57
2019-03-08T03:37:56.794Z,92.25
2019-03-08T03:40:25.196Z,92.08
2019-03-08T03:42:53.678Z,91.97
2019-03-08T03:45:22.323Z,92.20
2019-03-08T03:47:50.801Z,92.39
2019-03-08T03:50:19.671Z,92.21
2019-03-08T03:52:48.081Z,91.46
2019-03-08T03:55:17.726Z,91.82
2019-03-08T03:57:46.260Z,92.10
2019-03-08T04:00:22.602Z,92.58
2019-03-08T04:02:51.357Z,92.75
2019-03-08T04:05:19.993Z,93.02
2019-03-08T04:07:48.448Z,92.99
2019-03-08T04:10:17.919Z,93.49
2019-03-08T04:12:46.387Z,93.41
2019-03-08T04:15:19.692Z,93.66
2019-03-08T04:17:48.392Z,93.75
2019-03-08T04:20:18.163Z,94.14
2019-03-08T04:22:46.714Z,94.03
2019-03-08T04:25:15.267Z,94.42
2019-03-08T04:27:43.726Z,94.42
2019-03-08T04:30:40.063Z,94.55
2019-03-08T04:33:08.472Z,94.33
2019-03-08T04:35:36.876Z,94.63
2019-03-08T04:38:05.284Z,94.46
2019-03-08T04:40:33.703Z,94.64
2019-03-08T04:43:02.138Z,94.81
2019-03-08T04:45:30.529Z,94.81
2019-03-08T04:47:58.939Z,94.93
2019-03-08T04:50:27.330Z,94.97
2019-03-08T04:52:55.750Z,94.70
2019-03-08T04:55:24.146Z,94.85
2019-03-08T04:57:52.564Z,94.73
2019-03-08T05:00:22.326Z,95.01
2019-03-08T05:02:50.744Z,94.94
2019-03-08T05:05:19.183Z,94.91
2019-03-08T05:07:47.737Z,94.98
2019-03-08T05:10:17.709Z,94.66
2019-03-08T05:12:47.694Z,95.00
2019-03-08T05:15:17.252Z,94.66
2019-03-08T05:17:45.635Z,94.50
2019-03-08T05:20:14.128Z,94.56
2019-03-08T05:22:42.585Z,94.76
2019-03-08T05:25:13.407Z,94.67
2019-03-08T05:27:41.890Z,94.68
2019-03-08T05:30:15.511Z,94.79
2019-03-08T05:32:45.403Z,94.61
2019-03-08T05:35:14.731Z,94.41
2019-03-08T05:37:43.236Z,94.60
2019-03-08T05:40:13.861Z,94.56
2019-03-08T05:42:42.323Z,94.53
2019-03-08T05:45:12.388Z,94.61
2019-03-08T05:47:40.781Z,94.81
2019-03-08T05:50:10.519Z,94.74
2019-03-08T05:52:39.004Z,94.62
2019-03-08T05:55:09.610Z,94.77
2019-03-08T05:57:38.006Z,94.82
2019-03-08T06:00:16.244Z,94.65
2019-03-08T06:02:44.682Z,94.81
2019-03-08T06:05:13.166Z,94.47
2019-03-08T06:07:41.552Z,94.40
2019-03-08T06:10:33.579Z,94.51
2019-03-08T06:13:03.741Z,94.51
2019-03-08T06:15:32.229Z,93.99
2019-03-08T06:18:00.700Z,93.56
2019-03-08T06:20:29.116Z,92.94
2019-03-08T06:22:57.656Z,92.63
2019-03-08T06:25:26.335Z,92.14
2019-03-08T06:27:54.825Z,92.45
2019-03-08T06:30:23.368Z,92.01
2019-03-08T06:32:52.056Z,91.98
2019-03-08T06:35:20.509Z,92.01
2019-03-08T06:37:48.957Z,92.26
2019-03-08T06:40:17.502Z,91.79
2019-03-08T06:42:45.908Z,91.78
2019-03-08T06:45:18.181Z,92.00
2019-03-08T06:47:51.186Z,92.00
2019-03-08T06:50:19.691Z,91.92
2019-03-08T06:52:48.093Z,92.05
2019-03-08T06:55:17.580Z,92.89
2019-03-08T06:57:46.044Z,92.46
2019-03-08T07:00:35.286Z,92.35
2019-03-08T07:03:05.248Z,92.53
2019-03-08T07:05:33.668Z,92.74
2019-03-08T07:08:05.857Z,92.66
2019-03-08T07:10:34.266Z,92.39
2019-03-08T07:13:03.843Z,92.51
2019-03-08T07:15:32.528Z,92.38
2019-03-08T07:18:00.988Z,92.37
2019-03-08T07:20:33.855Z,92.36
2019-03-08T07:23:11.125Z,91.81
2019-03-08T07:25:41.386Z,91.86
2019-03-08T07:28:20.024Z,91.25
2019-03-08T07:30:57.656Z,90.89
2019-03-08T07:33:37.001Z,91.16
2019-03-08T07:36:11.874Z,90.77
2019-03-08T07:38:54.171Z,91.20
2019-03-08T07:41:28.861Z,89.63
2019-03-08T07:44:02.488Z,89.81
2019-03-08T07:46:48.861Z,89.33
2019-03-08T07:49:18.938Z,89.40
2019-03-08T07:51:57.545Z,89.06
2019-03-08T07:54:27.580Z,89.11
2019-03-08T07:57:00.164Z,88.40
2019-03-08T07:59:39.175Z,88.30
2019-03-08T08:02:09.581Z,88.47
2019-03-08T08:04:48.626Z,88.26
2019-03-08T08:07:21.682Z,88.25
2019-03-08T08:10:05.032Z,87.49
2019-03-08T08:12:50.477Z,87.43
2019-03-08T08:15:20.537Z,86.90
2019-03-08T08:17:59.437Z,86.83
2019-03-08T08:20:49.040Z,87.20
2019-03-08T08:23:19.160Z,87.18
2019-03-08T08:26:04.357Z,87.22
2019-03-08T08:28:34.422Z,86.93
2019-03-08T08:31:10.546Z,86.15
2019-03-08T08:33:57.131Z,85.98
2019-03-08T08:36:29.813Z,85.79
2019-03-08T08:39:12.099Z,85.48
2019-03-08T08:41:42.178Z,85.33
2019-03-08T08:44:12.223Z,84.67
2019-03-08T08:46:45.104Z,84.90
2019-03-08T08:49:17.867Z,85.19
2019-03-08T08:51:47.907Z,84.26
2019-03-08T08:54:24.044Z,83.25
2019-03-08T08:56:56.608Z,82.76
2019-03-08T08:59:26.684Z,82.44
2019-03-08T09:01:56.751Z,83.01
2019-03-08T09:04:26.835Z,81.94
2019-03-08T09:06:59.647Z,82.43
2019-03-08T09:09:41.804Z,80.44
2019-03-08T09:12:27.263Z,80.10
2019-03-08T09:15:13.783Z,78.27
2019-03-08T09:17:52.861Z,78.99
2019-03-08T09:20:28.688Z,78.75
2019-03-08T09:22:58.765Z,75.90
2019-03-08T09:25:40.788Z,76.62
2019-03-08T09:28:25.815Z,75.95
2019-03-08T09:31:01.976Z,74.88
2019-03-08T09:33:37.849Z,74.91
2019-03-08T09:36:10.671Z,75.44
2019-03-08T09:38:43.843Z,73.83
2019-03-08T09:41:20.033Z,73.31
2019-03-08T09:43:53.398Z,72.77
2019-03-08T09:46:23.562Z,72.06
2019-03-08T09:48:56.358Z,72.46
2019-03-08T09:51:27.103Z,70.99
2019-03-08T09:53:57.138Z,70.99
2019-03-08T09:56:43.426Z,71.33
2019-03-08T09:59:13.541Z,71.11
2019-03-08T10:01:59.861Z,71.24
2019-03-08T10:04:29.905Z,71.49
2019-03-08T10:06:59.950Z,72.34
2019-03-08T10:09:30.020Z,72.25
2019-03-08T10:12:00.243Z,71.63
2019-03-08T10:14:30.359Z,72.19
2019-03-08T10:17:00.577Z,72.28
2019-03-08T10:19:42.832Z,71.71
2019-03-08T10:22:12.873Z,72.44
2019-03-08T10:24:42.916Z,72.19
2019-03-08T10:27:16.143Z,71.27
2019-03-08T10:29:46.203Z,71.42
2019-03-08T10:32:16.260Z,70.65
2019-03-08T10:34:52.279Z,71.36
2019-03-08T10:37:22.359Z,70.71
2019-03-08T10:40:01.507Z,70.76
2019-03-08T10:42:37.346Z,71.50
2019-03-08T10:45:09.453Z,70.49
2019-03-08T10:47:39.534Z,71.43
2019-03-08T10:50:15.964Z,71.27
2019-03-08T10:52:51.981Z,70.82
2019-03-08T10:55:28.059Z,70.98
2019-03-08T10:57:58.100Z,69.25
2019-03-08T11:00:31.240Z,69.06
2019-03-08T11:03:07.302Z,68.19
2019-03-08T11:05:40.076Z,67.50
2019-03-08T11:08:29.565Z,67.33
2019-03-08T11:11:06.645Z,67.95
2019-03-08T11:13:53.076Z,67.74
2019-03-08T11:16:29.536Z,67.50
2019-03-08T11:19:15.747Z,66.98
2019-03-08T11:22:00.588Z,65.11
2019-03-08T11:24:46.529Z,66.18
2019-03-08T11:27:33.195Z,65.23
2019-03-08T11:30:21.814Z,65.98
2019-03-08T11:32:54.860Z,67.04
2019-03-08T11:35:25.016Z,66.68
2019-03-08T11:38:07.254Z,67.11
2019-03-08T11:40:39.986Z,65.77
2019-03-08T11:43:10.130Z,66.48
2019-03-08T11:45:51.745Z,65.54
2019-03-08T11:48:38.304Z,65.01
2019-03-08T11:51:26.477Z,65.88
2019-03-08T11:53:56.693Z,66.05
2019-03-08T11:56:35.814Z,65.79
2019-03-08T11:59:11.492Z,65.29
2019-03-08T12:01:59.129Z,64.19
2019-03-08T12:04:47.606Z,62.87
2019-03-08T12:07:17.687Z,61.27
2019-03-08T12:10:00.147Z,60.24
2019-03-08T12:12:30.426Z,61.82
2019-03-08T12:15:03.295Z,61.02
2019-03-08T12:17:45.581Z,62.59
2019-03-08T12:20:15.744Z,62.40
2019-03-08T12:23:02.082Z,61.24
2019-03-08T12:25:32.168Z,61.88
2019-03-08T12:28:18.190Z,62.38
2019-03-08T12:30:48.279Z,63.12
2019-03-08T12:33:29.965Z,63.41
2019-03-08T12:36:14.967Z,63.56
2019-03-08T12:38:45.064Z,63.49
2019-03-08T12:41:17.517Z,62.59
2019-03-08T12:44:03.523Z,61.33
2019-03-08T12:46:37.016Z,60.91
2019-03-08T12:49:07.075Z,61.32
2019-03-08T12:51:37.167Z,59.82
2019-03-08T12:54:07.349Z,60.34
2019-03-08T12:56:37.436Z,61.28
2019-03-08T12:59:07.753Z,59.04
2019-03-08T13:01:40.324Z,58.86
2019-03-08T13:04:13.369Z,59.93
2019-03-08T13:06:49.235Z,60.41
2019-03-08T13:09:19.575Z,60.70
2019-03-08T13:11:48.020Z,60.70
2019-03-08T13:14:16.498Z,60.65
2019-03-08T13:16:44.927Z,59.47
2019-03-08T13:19:13.349Z,59.18
2019-03-08T13:21:41.851Z,59.63
2019-03-08T13:24:10.513Z,58.36
2019-03-08T13:26:39.003Z,58.67
2019-03-08T13:29:07.517Z,58.39
2019-03-08T13:31:35.915Z,58.34
2019-03-08T13:34:04.381Z,58.98
2019-03-08T13:36:33.054Z,59.48
2019-03-08T13:39:01.659Z,60.10
2019-03-08T13:41:30.075Z,60.32
2019-03-08T13:44:00.604Z,60.16
2019-03-08T13:46:28.949Z,60.35
2019-03-08T13:48:57.447Z,59.87
2019-03-08T13:51:26.140Z,59.90
2019-03-08T13:53:54.875Z,61.19
2019-03-08T13:56:23.275Z,60.72
2019-03-08T13:58:51.698Z,60.42
2019-03-08T14:01:20.102Z,60.09
2019-03-08T14:03:48.537Z,60.42
2019-03-08T14:06:16.932Z,61.34
2019-03-08T14:08:45.643Z,61.73
2019-03-08T14:11:14.212Z,62.81
2019-03-08T14:13:42.689Z,61.34
2019-03-08T14:16:11.117Z,61.55
2019-03-08T14:18:39.531Z,61.95
2019-03-08T14:21:08.030Z,60.57
2019-03-08T14:23:36.841Z,60.47
2019-03-08T14:26:05.927Z,59.20
2019-03-08T14:28:34.719Z,59.33
2019-03-08T14:31:04.855Z,58.74
2019-03-08T14:33:34.386Z,59.89
2019-03-08T14:36:06.019Z,60.29
2019-03-08T14:38:37.086Z,60.73
2019-03-08T14:41:09.874Z,58.88
2019-03-08T14:43:39.950Z,57.83
2019-03-08T14:46:13.056Z,57.39
2019-03-08T14:48:42.555Z,58.02
2019-03-08T14:51:13.061Z,59.24
2019-03-08T14:53:41.615Z,58.42
2019-03-08T14:56:10.027Z,58.20
2019-03-08T14:58:40.269Z,57.51
2019-03-08T15:01:08.622Z,57.41
2019-03-08T15:03:43.318Z,56.60
2019-03-08T15:06:07.321Z,57.14
2019-03-08T15:08:35.773Z,56.65
2019-03-08T15:11:04.300Z,56.97
2019-03-08T15:13:32.711Z,57.72
2019-03-08T15:16:02.110Z,57.26
2019-03-08T15:18:31.442Z,58.82
2019-03-08T15:21:00.811Z,57.16
2019-03-08T15:23:29.324Z,57.86
2019-03-08T15:25:57.757Z,56.96
2019-03-08T15:28:26.587Z,56.45
2019-03-08T15:30:55.132Z,56.02
2019-03-08T15:33:23.590Z,56.23
2019-03-08T15:35:52.027Z,55.50
2019-03-08T15:38:20.500Z,55.65
2019-03-08T15:40:48.976Z,54.85
2019-03-08T15:43:17.437Z,55.12
2019-03-08T15:45:46.251Z,55.00
2019-03-08T15:48:15.937Z,54.81
2019-03-08T15:50:46.752Z,56.37
2019-03-08T15:53:14.775Z,55.71
2019-03-08T15:55:52.526Z,56.50
2019-03-08T15:58:13.648Z,56.81
2019-03-08T16:00:42.159Z,56.99
2019-03-08T16:03:10.672Z,57.78
2019-03-08T16:05:39.166Z,58.36
2019-03-08T16:08:07.565Z,57.67
2019-03-08T16:10:36.126Z,57.48
2019-03-08T16:13:04.662Z,58.36
2019-03-08T16:15:33.148Z,57.68
2019-03-08T16:18:01.560Z,57.99
2019-03-08T16:20:29.963Z,58.08
2019-03-08T16:22:58.499Z,58.62
2019-03-08T16:25:27.010Z,58.33
2019-03-08T16:27:55.530Z,58.73
2019-03-08T16:30:39.858Z,59.50
2019-03-08T16:33:17.706Z,59.84
2019-03-08T16:36:04.298Z,60.31
2019-03-08T16:38:34.233Z,59.11
2019-03-08T16:41:04.297Z,59.88
2019-03-08T16:43:34.112Z,59.48
2019-03-08T16:46:06.936Z,60.97
2019-03-08T16:48:40.307Z,60.54
2019-03-08T16:51:20.459Z,60.80
2019-03-08T16:54:03.661Z,61.75
2019-03-08T16:56:45.416Z,61.61
2019-03-08T16:59:33.601Z,62.13
2019-03-08T17:02:15.424Z,62.86
2019-03-08T17:04:54.118Z,63.17
2019-03-08T17:07:36.436Z,63.16
2019-03-08T17:10:07.461Z,63.78
2019-03-08T17:12:52.442Z,64.48
2019-03-08T17:15:38.719Z,64.17
2019-03-08T17:18:25.118Z,63.86
2019-03-08T17:20:57.941Z,64.43
2019-03-08T17:23:28.099Z,64.38
2019-03-08T17:26:16.444Z,64.32
2019-03-08T17:29:02.944Z,64.70
2019-03-08T17:31:33.000Z,65.21
2019-03-08T17:34:19.135Z,64.60
2019-03-08T17:37:01.595Z,64.67
2019-03-08T17:39:43.609Z,64.85
2019-03-08T17:42:30.189Z,65.41
2019-03-08T17:45:09.214Z,66.80
2019-03-08T17:47:39.292Z,68.73
2019-03-08T17:50:12.516Z,69.64
2019-03-08T17:52:54.565Z,70.69
2019-03-08T17:55:30.685Z,71.78
2019-03-08T17:58:13.118Z,73.11
2019-03-08T18:00:43.245Z,73.67
2019-03-08T18:03:15.805Z,73.32
2019-03-08T18:05:48.588Z,73.22
2019-03-08T18:08:36.736Z,73.45
2019-03-08T18:11:22.831Z,73.21
2019-03-08T18:13:58.859Z,73.33
2019-03-08T18:16:32.090Z,73.34
2019-03-08T18:19:02.177Z,73.83
2019-03-08T18:21:37.757Z,73.69
2019-03-08T18:24:08.076Z,73.93
2019-03-08T18:26:38.148Z,74.49
2019-03-08T18:29:11.205Z,74.66
2019-03-08T18:31:53.389Z,74.74
2019-03-08T18:34:29.341Z,74.96
2019-03-08T18:37:02.096Z,74.94
2019-03-08T18:39:35.125Z,74.85
2019-03-08T18:42:05.216Z,74.91
2019-03-08T18:44:52.736Z,74.92
2019-03-08T18:47:28.286Z,74.68
2019-03-08T18:50:04.108Z,75.21
2019-03-08T18:52:34.167Z,74.88
2019-03-08T18:55:10.033Z,75.49
2019-03-08T18:57:56.264Z,75.62
2019-03-08T19:00:28.794Z,75.40
2019-03-08T19:03:07.396Z,75.46
2019-03-08T19:05:43.294Z,75.66
2019-03-08T19:08:19.103Z,75.89
2019-03-08T19:11:01.328Z,76.21
2019-03-08T19:13:31.367Z,76.30
2019-03-08T19:16:03.916Z,76.10
2019-03-08T19:18:36.970Z,76.51
2019-03-08T19:21:18.927Z,76.48
2019-03-08T19:23:51.834Z,76.77
2019-03-08T19:26:24.846Z,76.66
2019-03-08T19:28:54.971Z,76.69
2019-03-08T19:31:40.128Z,77.02
2019-03-08T19:34:10.176Z,76.81
2019-03-08T19:36:52.452Z,76.86
2019-03-08T19:39:38.593Z,76.53
2019-03-08T19:42:14.847Z,76.40
2019-03-08T19:44:44.950Z,76.41
2019-03-08T19:47:31.457Z,75.99
2019-03-08T19:50:01.516Z,75.51
2019-03-08T19:52:47.767Z,75.24
2019-03-08T19:55:23.943Z,75.00
2019-03-08T19:58:10.414Z,74.67
2019-03-08T20:00:49.471Z,73.78
2019-03-08T20:03:19.629Z,73.56
2019-03-08T20:05:49.787Z,73.59
2019-03-08T20:08:25.680Z,73.83
2019-03-08T20:10:58.760Z,73.79
2019-03-08T20:13:34.521Z,74.03
2019-03-08T20:16:07.464Z,74.64
2019-03-08T20:18:43.180Z,75.02
2019-03-08T20:21:22.162Z,75.31
2019-03-08T20:24:01.121Z,75.61
2019-03-08T20:26:36.939Z,75.67
2019-03-08T20:29:09.506Z,75.77
2019-03-08T20:31:55.981Z,76.04
2019-03-08T20:34:31.809Z,76.26
2019-03-08T20:37:07.686Z,76.84
2019-03-08T20:39:39.776Z,77.39
2019-03-08T20:42:10.057Z,77.27
2019-03-08T20:44:46.108Z,77.50
2019-03-08T20:47:19.100Z,77.75
2019-03-08T20:49:47.529Z,78.14
2019-03-08T20:52:16.200Z,78.22
2019-03-08T20:54:44.618Z,78.47
2019-03-08T20:57:13.124Z,78.49
2019-03-08T20:59:41.538Z,78.61
2019-03-08T21:02:10.047Z,78.40
2019-03-08T21:04:38.566Z,78.63
2019-03-08T21:07:07.127Z,78.58
2019-03-08T21:09:35.626Z,78.77
2019-03-08T21:12:04.107Z,78.82
2019-03-08T21:14:32.594Z,78.67
2019-03-08T21:17:01.006Z,78.53
2019-03-08T21:19:29.448Z,78.69
2019-03-08T21:21:57.926Z,78.71
2019-03-08T21:24:26.415Z,78.50
2019-03-08T21:26:54.834Z,78.52
2019-03-08T21:29:23.333Z,78.54
2019-03-08T21:31:51.838Z,78.64
2019-03-08T21:34:20.589Z,78.71
2019-03-08T21:36:49.056Z,78.62
2019-03-08T21:39:17.559Z,78.75
2019-03-08T21:41:45.960Z,78.66
2019-03-08T21:44:14.412Z,78.66
2019-03-08T21:46:42.875Z,78.56
2019-03-08T21:49:12.079Z,78.77
2019-03-08T21:51:40.546Z,78.43
2019-03-08T21:54:08.987Z,78.50
2019-03-08T21:56:37.389Z,78.53
2019-03-08T21:59:05.896Z,78.41
2019-03-08T22:01:34.475Z,78.58
2019-03-08T22:04:04.525Z,78.55
2019-03-08T22:06:32.953Z,78.61
2019-03-08T22:09:05.763Z,78.63
2019-03-08T22:11:35.975Z,78.50
2019-03-08T22:14:04.696Z,78.51
2019-03-08T22:16:33.134Z,78.29
2019-03-08T22:19:01.534Z,78.11
2019-03-08T22:21:30.062Z,77.83
2019-03-08T22:23:58.648Z,78.10
2019-03-08T22:26:27.101Z,78.06
2019-03-08T22:28:55.513Z,77.66
2019-03-08T22:31:23.937Z,76.99
2019-03-08T22:33:52.389Z,76.91
2019-03-08T22:36:20.794Z,77.18
2019-03-08T22:38:49.299Z,77.58
2019-03-08T22:41:17.889Z,77.71
2019-03-08T22:43:46.326Z,77.87
2019-03-08T22:46:14.734Z,77.95
2019-03-08T22:48:43.139Z,77.73
2019-03-08T22:51:11.565Z,77.14
2019-03-08T22:53:39.952Z,77.22
2019-03-08T22:56:08.385Z,77.79
2019-03-08T22:58:36.773Z,78.29
2019-03-08T23:01:08.910Z,78.85
2019-03-08T23:03:37.397Z,78.78
2019-03-08T23:06:06.063Z,79.57
2019-03-08T23:08:34.481Z,80.53
2019-03-08T23:11:03.038Z,81.35
2019-03-08T23:13:31.489Z,81.12
2019-03-08T23:16:00.024Z,80.59
2019-03-08T23:18:28.546Z,80.88
2019-03-08T23:20:57.803Z,81.38
2019-03-08T23:23:26.251Z,81.29
2019-03-08T23:25:54.730Z,82.23
2019-03-08T23:28:24.775Z,81.97
2019-03-08T23:31:11.283Z,82.46
2019-03-08T23:33:39.700Z,82.91
2019-03-08T23:36:08.130Z,83.13
2019-03-08T23:38:36.593Z,82.88
2019-03-08T23:41:05.148Z,82.11
2019-03-08T23:43:33.922Z,81.68
2019-03-08T23:46:02.350Z,82.32
2019-03-08T23:48:32.877Z,81.99
2019-03-08T23:51:01.308Z,81.36
2019-03-08T23:53:29.710Z,80.46
2019-03-08T23:55:58.129Z,80.14
2019-03-08T23:58:26.527Z,80.54
